sensor_id;sensor_type;location;lat;lon;timestamp;P1;durP1;ratioP1;P2;durP2;ratioP2
12480;SDS011;6305;48.398;11.762;2023-05-10T00:00:46;3.05;;;2.25;;
12480;SDS011;6305;48.398;11.762;2023-05-10T00:03:13;4.15;;;2.42;;
12480;SDS011;6305;48.398;11.762;2023-05-10T00:05:40;2.67;;;2.42;;
12480;SDS011;6305;48.398;11.762;2023-05-10T00:08:07;3.40;;;2.60;;
12480;SDS011;6305;48.398;11.762;2023-05-10T00:10:35;3.15;;;2.67;;
12480;SDS011;6305;48.398;11.762;2023-05-10T00:13:02;3.10;;;2.80;;
12480;SDS011;6305;48.398;11.762;2023-05-10T00:15:29;4.68;;;3.10;;
12480;SDS011;6305;48.398;11.762;2023-05-10T00:17:56;3.40;;;2.95;;
12480;SDS011;6305;48.398;11.762;2023-05-10T00:20:23;3.63;;;2.70;;
12480;SDS011;6305;48.398;11.762;2023-05-10T00:22:50;4.22;;;2.65;;
12480;SDS011;6305;48.398;11.762;2023-05-10T00:25:17;4.72;;;2.50;;
12480;SDS011;6305;48.398;11.762;2023-05-10T00:27:48;4.40;;;2.65;;
12480;SDS011;6305;48.398;11.762;2023-05-10T00:30:14;3.35;;;2.63;;
12480;SDS011;6305;48.398;11.762;2023-05-10T00:32:42;5.63;;;2.70;;
12480;SDS011;6305;48.398;11.762;2023-05-10T00:35:09;3.50;;;2.60;;
12480;SDS011;6305;48.398;11.762;2023-05-10T00:37:36;2.88;;;2.30;;
12480;SDS011;6305;48.398;11.762;2023-05-10T00:40:03;3.00;;;2.50;;
12480;SDS011;6305;48.398;11.762;2023-05-10T00:42:31;3.63;;;2.85;;
12480;SDS011;6305;48.398;11.762;2023-05-10T00:44:59;4.75;;;2.80;;
12480;SDS011;6305;48.398;11.762;2023-05-10T00:47:27;3.45;;;2.60;;
12480;SDS011;6305;48.398;11.762;2023-05-10T00:49:55;3.67;;;2.83;;
12480;SDS011;6305;48.398;11.762;2023-05-10T00:52:22;2.95;;;2.63;;
12480;SDS011;6305;48.398;11.762;2023-05-10T00:54:50;4.03;;;3.05;;
12480;SDS011;6305;48.398;11.762;2023-05-10T00:57:18;5.20;;;2.90;;
12480;SDS011;6305;48.398;11.762;2023-05-10T00:59:45;5.85;;;3.30;;
12480;SDS011;6305;48.398;11.762;2023-05-10T01:02:13;5.35;;;3.70;;
12480;SDS011;6305;48.398;11.762;2023-05-10T01:04:40;4.55;;;3.33;;
12480;SDS011;6305;48.398;11.762;2023-05-10T01:07:07;4.88;;;3.55;;
12480;SDS011;6305;48.398;11.762;2023-05-10T01:09:34;4.85;;;3.78;;
12480;SDS011;6305;48.398;11.762;2023-05-10T01:12:01;5.28;;;3.90;;
12480;SDS011;6305;48.398;11.762;2023-05-10T01:14:32;6.80;;;4.10;;
12480;SDS011;6305;48.398;11.762;2023-05-10T01:16:59;6.03;;;3.90;;
12480;SDS011;6305;48.398;11.762;2023-05-10T01:19:29;6.32;;;4.18;;
12480;SDS011;6305;48.398;11.762;2023-05-10T01:22:02;6.03;;;4.10;;
12480;SDS011;6305;48.398;11.762;2023-05-10T01:24:54;5.25;;;4.10;;
12480;SDS011;6305;48.398;11.762;2023-05-10T01:27:54;7.30;;;4.07;;
12480;SDS011;6305;48.398;11.762;2023-05-10T01:30:44;7.68;;;3.90;;
12480;SDS011;6305;48.398;11.762;2023-05-10T01:33:31;7.25;;;3.90;;
12480;SDS011;6305;48.398;11.762;2023-05-10T01:36:06;5.40;;;3.70;;
12480;SDS011;6305;48.398;11.762;2023-05-10T01:38:41;6.47;;;4.40;;
12480;SDS011;6305;48.398;11.762;2023-05-10T01:41:17;5.93;;;3.85;;
12480;SDS011;6305;48.398;11.762;2023-05-10T01:43:52;6.18;;;4.20;;
12480;SDS011;6305;48.398;11.762;2023-05-10T01:46:24;6.07;;;3.67;;
12480;SDS011;6305;48.398;11.762;2023-05-10T01:48:59;6.13;;;4.13;;
12480;SDS011;6305;48.398;11.762;2023-05-10T01:51:29;5.47;;;3.80;;
12480;SDS011;6305;48.398;11.762;2023-05-10T01:54:11;4.70;;;3.75;;
12480;SDS011;6305;48.398;11.762;2023-05-10T01:56:40;6.10;;;3.83;;
12480;SDS011;6305;48.398;11.762;2023-05-10T01:59:11;5.65;;;3.53;;
12480;SDS011;6305;48.398;11.762;2023-05-10T02:01:41;5.00;;;3.85;;
12480;SDS011;6305;48.398;11.762;2023-05-10T02:04:12;4.43;;;3.30;;
12480;SDS011;6305;48.398;11.762;2023-05-10T02:06:43;6.47;;;3.72;;
12480;SDS011;6305;48.398;11.762;2023-05-10T02:09:13;5.95;;;3.65;;
12480;SDS011;6305;48.398;11.762;2023-05-10T02:11:41;6.03;;;3.67;;
12480;SDS011;6305;48.398;11.762;2023-05-10T02:14:11;4.38;;;3.13;;
12480;SDS011;6305;48.398;11.762;2023-05-10T02:16:38;4.88;;;3.47;;
12480;SDS011;6305;48.398;11.762;2023-05-10T02:19:06;3.60;;;3.08;;
12480;SDS011;6305;48.398;11.762;2023-05-10T02:21:36;6.30;;;3.50;;
12480;SDS011;6305;48.398;11.762;2023-05-10T02:24:05;4.78;;;3.08;;
12480;SDS011;6305;48.398;11.762;2023-05-10T02:26:33;5.78;;;3.10;;
12480;SDS011;6305;48.398;11.762;2023-05-10T02:29:02;4.40;;;2.78;;
12480;SDS011;6305;48.398;11.762;2023-05-10T02:31:30;4.65;;;2.83;;
12480;SDS011;6305;48.398;11.762;2023-05-10T02:33:58;6.07;;;2.60;;
12480;SDS011;6305;48.398;11.762;2023-05-10T02:36:26;3.50;;;2.97;;
12480;SDS011;6305;48.398;11.762;2023-05-10T02:38:55;4.60;;;2.63;;
12480;SDS011;6305;48.398;11.762;2023-05-10T02:41:23;3.60;;;2.45;;
12480;SDS011;6305;48.398;11.762;2023-05-10T02:43:52;3.45;;;2.65;;
12480;SDS011;6305;48.398;11.762;2023-05-10T02:46:23;3.03;;;2.20;;
12480;SDS011;6305;48.398;11.762;2023-05-10T02:48:50;2.55;;;2.35;;
12480;SDS011;6305;48.398;11.762;2023-05-10T02:51:18;5.90;;;2.38;;
12480;SDS011;6305;48.398;11.762;2023-05-10T02:53:46;3.33;;;2.45;;
12480;SDS011;6305;48.398;11.762;2023-05-10T02:56:19;4.13;;;2.75;;
12480;SDS011;6305;48.398;11.762;2023-05-10T02:58:51;2.90;;;2.17;;
12480;SDS011;6305;48.398;11.762;2023-05-10T03:01:18;3.08;;;2.50;;
12480;SDS011;6305;48.398;11.762;2023-05-10T03:03:45;2.90;;;2.40;;
12480;SDS011;6305;48.398;11.762;2023-05-10T03:06:12;2.92;;;2.38;;
12480;SDS011;6305;48.398;11.762;2023-05-10T03:08:41;3.25;;;2.30;;
12480;SDS011;6305;48.398;11.762;2023-05-10T03:11:24;2.90;;;2.30;;
12480;SDS011;6305;48.398;11.762;2023-05-10T03:14:08;3.20;;;2.22;;
12480;SDS011;6305;48.398;11.762;2023-05-10T03:16:41;3.15;;;2.25;;
12480;SDS011;6305;48.398;11.762;2023-05-10T03:19:13;2.47;;;1.90;;
12480;SDS011;6305;48.398;11.762;2023-05-10T03:21:45;2.63;;;2.25;;
12480;SDS011;6305;48.398;11.762;2023-05-10T03:24:16;3.05;;;2.30;;
12480;SDS011;6305;48.398;11.762;2023-05-10T03:26:49;3.05;;;2.33;;
12480;SDS011;6305;48.398;11.762;2023-05-10T03:29:19;2.67;;;2.30;;
12480;SDS011;6305;48.398;11.762;2023-05-10T03:31:48;2.80;;;2.05;;
12480;SDS011;6305;48.398;11.762;2023-05-10T03:34:15;2.45;;;2.00;;
12480;SDS011;6305;48.398;11.762;2023-05-10T03:36:42;3.92;;;2.28;;
12480;SDS011;6305;48.398;11.762;2023-05-10T03:39:09;3.88;;;1.98;;
12480;SDS011;6305;48.398;11.762;2023-05-10T03:41:36;3.78;;;2.63;;
12480;SDS011;6305;48.398;11.762;2023-05-10T03:44:04;3.50;;;2.35;;
12480;SDS011;6305;48.398;11.762;2023-05-10T03:46:31;2.67;;;2.40;;
12480;SDS011;6305;48.398;11.762;2023-05-10T03:48:59;2.45;;;2.25;;
12480;SDS011;6305;48.398;11.762;2023-05-10T03:51:25;2.60;;;2.28;;
12480;SDS011;6305;48.398;11.762;2023-05-10T03:53:53;3.13;;;2.30;;
12480;SDS011;6305;48.398;11.762;2023-05-10T03:56:20;2.33;;;1.98;;
12480;SDS011;6305;48.398;11.762;2023-05-10T03:58:47;2.40;;;2.08;;
12480;SDS011;6305;48.398;11.762;2023-05-10T04:01:17;3.00;;;2.13;;
12480;SDS011;6305;48.398;11.762;2023-05-10T04:03:45;3.70;;;2.20;;
12480;SDS011;6305;48.398;11.762;2023-05-10T04:06:12;2.50;;;2.30;;
12480;SDS011;6305;48.398;11.762;2023-05-10T04:08:39;3.85;;;2.40;;
12480;SDS011;6305;48.398;11.762;2023-05-10T04:11:06;3.78;;;2.60;;
12480;SDS011;6305;48.398;11.762;2023-05-10T04:13:34;4.07;;;2.47;;
12480;SDS011;6305;48.398;11.762;2023-05-10T04:16:00;2.95;;;2.28;;
12480;SDS011;6305;48.398;11.762;2023-05-10T04:18:30;4.30;;;2.50;;
12480;SDS011;6305;48.398;11.762;2023-05-10T04:20:57;2.65;;;2.40;;
12480;SDS011;6305;48.398;11.762;2023-05-10T04:23:24;2.72;;;2.13;;
12480;SDS011;6305;48.398;11.762;2023-05-10T04:25:51;2.97;;;2.40;;
12480;SDS011;6305;48.398;11.762;2023-05-10T04:28:17;3.00;;;2.70;;
12480;SDS011;6305;48.398;11.762;2023-05-10T04:30:44;2.70;;;2.40;;
12480;SDS011;6305;48.398;11.762;2023-05-10T04:33:12;3.67;;;2.53;;
12480;SDS011;6305;48.398;11.762;2023-05-10T04:35:40;3.33;;;2.40;;
12480;SDS011;6305;48.398;11.762;2023-05-10T04:38:07;2.90;;;2.40;;
12480;SDS011;6305;48.398;11.762;2023-05-10T04:40:34;3.45;;;2.67;;
12480;SDS011;6305;48.398;11.762;2023-05-10T04:43:01;2.67;;;2.40;;
12480;SDS011;6305;48.398;11.762;2023-05-10T04:45:28;4.70;;;2.50;;
12480;SDS011;6305;48.398;11.762;2023-05-10T04:47:55;3.00;;;2.40;;
12480;SDS011;6305;48.398;11.762;2023-05-10T04:50:22;2.80;;;2.60;;
12480;SDS011;6305;48.398;11.762;2023-05-10T04:52:50;3.22;;;2.55;;
12480;SDS011;6305;48.398;11.762;2023-05-10T04:55:17;2.60;;;2.40;;
12480;SDS011;6305;48.398;11.762;2023-05-10T04:57:44;2.50;;;2.30;;
12480;SDS011;6305;48.398;11.762;2023-05-10T05:00:11;4.85;;;2.55;;
12480;SDS011;6305;48.398;11.762;2023-05-10T05:02:41;2.47;;;2.28;;
12480;SDS011;6305;48.398;11.762;2023-05-10T05:05:08;3.10;;;2.55;;
12480;SDS011;6305;48.398;11.762;2023-05-10T05:07:35;3.28;;;2.15;;
12480;SDS011;6305;48.398;11.762;2023-05-10T05:10:04;2.10;;;1.90;;
12480;SDS011;6305;48.398;11.762;2023-05-10T05:12:32;2.10;;;1.95;;
12480;SDS011;6305;48.398;11.762;2023-05-10T05:14:59;2.45;;;1.90;;
12480;SDS011;6305;48.398;11.762;2023-05-10T05:17:26;2.17;;;1.58;;
12480;SDS011;6305;48.398;11.762;2023-05-10T05:19:53;2.58;;;1.67;;
12480;SDS011;6305;48.398;11.762;2023-05-10T05:22:20;3.28;;;1.52;;
12480;SDS011;6305;48.398;11.762;2023-05-10T05:24:52;1.98;;;1.40;;
12480;SDS011;6305;48.398;11.762;2023-05-10T05:27:20;1.70;;;1.27;;
12480;SDS011;6305;48.398;11.762;2023-05-10T05:29:49;2.78;;;1.17;;
12480;SDS011;6305;48.398;11.762;2023-05-10T05:32:16;1.52;;;0.90;;
12480;SDS011;6305;48.398;11.762;2023-05-10T05:34:43;0.80;;;0.80;;
12480;SDS011;6305;48.398;11.762;2023-05-10T05:37:12;0.82;;;0.70;;
12480;SDS011;6305;48.398;11.762;2023-05-10T05:39:39;1.13;;;0.88;;
12480;SDS011;6305;48.398;11.762;2023-05-10T05:42:06;1.00;;;0.90;;
12480;SDS011;6305;48.398;11.762;2023-05-10T05:44:34;2.05;;;1.00;;
12480;SDS011;6305;48.398;11.762;2023-05-10T05:47:02;0.80;;;0.73;;
12480;SDS011;6305;48.398;11.762;2023-05-10T05:49:30;1.45;;;0.90;;
12480;SDS011;6305;48.398;11.762;2023-05-10T05:51:58;1.27;;;1.13;;
12480;SDS011;6305;48.398;11.762;2023-05-10T05:54:25;1.42;;;1.00;;
12480;SDS011;6305;48.398;11.762;2023-05-10T05:56:54;1.15;;;1.00;;
12480;SDS011;6305;48.398;11.762;2023-05-10T05:59:21;0.88;;;0.88;;
12480;SDS011;6305;48.398;11.762;2023-05-10T06:01:50;1.00;;;0.90;;
12480;SDS011;6305;48.398;11.762;2023-05-10T06:04:16;0.82;;;0.82;;
12480;SDS011;6305;48.398;11.762;2023-05-10T06:06:44;1.10;;;0.90;;
12480;SDS011;6305;48.398;11.762;2023-05-10T06:09:11;2.30;;;0.90;;
12480;SDS011;6305;48.398;11.762;2023-05-10T06:11:39;1.33;;;1.00;;
12480;SDS011;6305;48.398;11.762;2023-05-10T06:14:05;1.10;;;1.00;;
12480;SDS011;6305;48.398;11.762;2023-05-10T06:16:33;1.15;;;1.02;;
12480;SDS011;6305;48.398;11.762;2023-05-10T06:19:01;1.20;;;1.08;;
12480;SDS011;6305;48.398;11.762;2023-05-10T06:21:29;1.63;;;0.90;;
12480;SDS011;6305;48.398;11.762;2023-05-10T06:23:56;1.05;;;0.95;;
12480;SDS011;6305;48.398;11.762;2023-05-10T06:26:23;2.20;;;1.30;;
12480;SDS011;6305;48.398;11.762;2023-05-10T06:28:50;2.00;;;1.23;;
12480;SDS011;6305;48.398;11.762;2023-05-10T06:31:16;1.20;;;1.10;;
12480;SDS011;6305;48.398;11.762;2023-05-10T06:33:43;1.27;;;1.17;;
12480;SDS011;6305;48.398;11.762;2023-05-10T06:36:12;2.15;;;1.33;;
12480;SDS011;6305;48.398;11.762;2023-05-10T06:38:39;1.20;;;1.10;;
12480;SDS011;6305;48.398;11.762;2023-05-10T06:41:06;1.40;;;1.30;;
12480;SDS011;6305;48.398;11.762;2023-05-10T06:43:34;1.83;;;1.33;;
12480;SDS011;6305;48.398;11.762;2023-05-10T06:46:02;2.70;;;1.30;;
12480;SDS011;6305;48.398;11.762;2023-05-10T06:48:29;4.07;;;1.23;;
12480;SDS011;6305;48.398;11.762;2023-05-10T06:50:55;3.15;;;1.50;;
12480;SDS011;6305;48.398;11.762;2023-05-10T06:53:24;3.42;;;1.10;;
12480;SDS011;6305;48.398;11.762;2023-05-10T06:55:51;1.48;;;1.38;;
12480;SDS011;6305;48.398;11.762;2023-05-10T06:58:18;1.60;;;1.50;;
12480;SDS011;6305;48.398;11.762;2023-05-10T07:00:45;2.63;;;1.67;;
12480;SDS011;6305;48.398;11.762;2023-05-10T07:03:12;4.15;;;1.50;;
12480;SDS011;6305;48.398;11.762;2023-05-10T07:05:39;2.67;;;1.50;;
12480;SDS011;6305;48.398;11.762;2023-05-10T07:08:06;1.58;;;1.40;;
12480;SDS011;6305;48.398;11.762;2023-05-10T07:10:35;1.70;;;1.60;;
12480;SDS011;6305;48.398;11.762;2023-05-10T07:13:02;2.17;;;1.60;;
12480;SDS011;6305;48.398;11.762;2023-05-10T07:15:28;1.77;;;1.63;;
12480;SDS011;6305;48.398;11.762;2023-05-10T07:17:55;2.05;;;1.20;;
12480;SDS011;6305;48.398;11.762;2023-05-10T07:20:22;2.13;;;1.42;;
12480;SDS011;6305;48.398;11.762;2023-05-10T07:22:49;1.23;;;1.13;;
12480;SDS011;6305;48.398;11.762;2023-05-10T07:25:16;2.60;;;1.45;;
12480;SDS011;6305;48.398;11.762;2023-05-10T07:27:44;2.20;;;1.40;;
12480;SDS011;6305;48.398;11.762;2023-05-10T07:30:13;1.40;;;1.30;;
12480;SDS011;6305;48.398;11.762;2023-05-10T07:32:40;2.20;;;1.30;;
12480;SDS011;6305;48.398;11.762;2023-05-10T07:35:08;1.20;;;1.10;;
12480;SDS011;6305;48.398;11.762;2023-05-10T07:37:35;1.30;;;1.20;;
12480;SDS011;6305;48.398;11.762;2023-05-10T07:40:02;1.13;;;1.02;;
12480;SDS011;6305;48.398;11.762;2023-05-10T07:42:29;1.20;;;1.10;;
12480;SDS011;6305;48.398;11.762;2023-05-10T07:44:57;3.05;;;1.13;;
12480;SDS011;6305;48.398;11.762;2023-05-10T07:47:24;1.55;;;1.27;;
12480;SDS011;6305;48.398;11.762;2023-05-10T07:49:51;1.30;;;1.20;;
12480;SDS011;6305;48.398;11.762;2023-05-10T07:52:19;2.33;;;1.10;;
12480;SDS011;6305;48.398;11.762;2023-05-10T07:54:46;1.08;;;0.90;;
12480;SDS011;6305;48.398;11.762;2023-05-10T07:57:13;1.20;;;1.10;;
12480;SDS011;6305;48.398;11.762;2023-05-10T07:59:42;1.98;;;1.23;;
12480;SDS011;6305;48.398;11.762;2023-05-10T08:02:11;1.80;;;1.17;;
12480;SDS011;6305;48.398;11.762;2023-05-10T08:04:38;1.15;;;1.05;;
12480;SDS011;6305;48.398;11.762;2023-05-10T08:07:05;1.20;;;1.00;;
12480;SDS011;6305;48.398;11.762;2023-05-10T08:09:32;1.38;;;1.27;;
12480;SDS011;6305;48.398;11.762;2023-05-10T08:11:59;1.27;;;1.17;;
12480;SDS011;6305;48.398;11.762;2023-05-10T08:14:27;1.20;;;1.10;;
12480;SDS011;6305;48.398;11.762;2023-05-10T08:16:55;1.52;;;1.00;;
12480;SDS011;6305;48.398;11.762;2023-05-10T08:19:23;1.40;;;1.05;;
12480;SDS011;6305;48.398;11.762;2023-05-10T08:21:50;1.45;;;1.05;;
12480;SDS011;6305;48.398;11.762;2023-05-10T08:24:17;1.85;;;1.10;;
12480;SDS011;6305;48.398;11.762;2023-05-10T08:26:44;1.02;;;0.93;;
12480;SDS011;6305;48.398;11.762;2023-05-10T08:29:11;1.17;;;1.08;;
12480;SDS011;6305;48.398;11.762;2023-05-10T08:31:38;1.55;;;1.10;;
12480;SDS011;6305;48.398;11.762;2023-05-10T08:34:05;1.05;;;1.02;;
12480;SDS011;6305;48.398;11.762;2023-05-10T08:36:34;1.10;;;1.10;;
12480;SDS011;6305;48.398;11.762;2023-05-10T08:39:01;1.27;;;1.10;;
12480;SDS011;6305;48.398;11.762;2023-05-10T08:41:28;1.33;;;1.23;;
12480;SDS011;6305;48.398;11.762;2023-05-10T08:43:58;1.13;;;1.02;;
12480;SDS011;6305;48.398;11.762;2023-05-10T08:46:29;1.77;;;0.90;;
12480;SDS011;6305;48.398;11.762;2023-05-10T08:48:57;1.33;;;1.15;;
12480;SDS011;6305;48.398;11.762;2023-05-10T08:51:26;1.33;;;1.17;;
12480;SDS011;6305;48.398;11.762;2023-05-10T08:54:00;1.17;;;1.05;;
12480;SDS011;6305;48.398;11.762;2023-05-10T08:56:28;2.13;;;1.20;;
12480;SDS011;6305;48.398;11.762;2023-05-10T08:58:55;1.25;;;1.15;;
12480;SDS011;6305;48.398;11.762;2023-05-10T09:01:22;1.30;;;1.20;;
12480;SDS011;6305;48.398;11.762;2023-05-10T09:03:50;2.10;;;1.30;;
12480;SDS011;6305;48.398;11.762;2023-05-10T09:06:17;3.28;;;1.65;;
12480;SDS011;6305;48.398;11.762;2023-05-10T09:08:44;3.10;;;1.27;;
12480;SDS011;6305;48.398;11.762;2023-05-10T09:11:13;1.85;;;1.20;;
12480;SDS011;6305;48.398;11.762;2023-05-10T09:13:40;1.30;;;1.20;;
12480;SDS011;6305;48.398;11.762;2023-05-10T09:16:08;1.17;;;1.00;;
12480;SDS011;6305;48.398;11.762;2023-05-10T09:18:35;1.40;;;1.30;;
12480;SDS011;6305;48.398;11.762;2023-05-10T09:21:02;1.20;;;1.10;;
12480;SDS011;6305;48.398;11.762;2023-05-10T09:23:29;1.83;;;1.10;;
12480;SDS011;6305;48.398;11.762;2023-05-10T09:26:03;2.90;;;1.30;;
12480;SDS011;6305;48.398;11.762;2023-05-10T09:28:49;1.48;;;1.10;;
12480;SDS011;6305;48.398;11.762;2023-05-10T09:31:17;1.35;;;1.05;;
12480;SDS011;6305;48.398;11.762;2023-05-10T09:33:45;1.15;;;1.00;;
12480;SDS011;6305;48.398;11.762;2023-05-10T09:36:12;1.02;;;1.00;;
12480;SDS011;6305;48.398;11.762;2023-05-10T09:38:46;1.83;;;1.23;;
12480;SDS011;6305;48.398;11.762;2023-05-10T09:41:17;1.15;;;1.02;;
12480;SDS011;6305;48.398;11.762;2023-05-10T09:43:47;0.82;;;0.82;;
12480;SDS011;6305;48.398;11.762;2023-05-10T09:46:14;1.08;;;0.98;;
12480;SDS011;6305;48.398;11.762;2023-05-10T09:48:42;1.20;;;1.10;;
12480;SDS011;6305;48.398;11.762;2023-05-10T09:51:10;2.75;;;1.20;;
12480;SDS011;6305;48.398;11.762;2023-05-10T09:53:44;1.20;;;1.10;;
12480;SDS011;6305;48.398;11.762;2023-05-10T09:56:11;1.40;;;1.08;;
12480;SDS011;6305;48.398;11.762;2023-05-10T09:58:39;1.20;;;1.00;;
12480;SDS011;6305;48.398;11.762;2023-05-10T10:01:11;1.27;;;1.17;;
12480;SDS011;6305;48.398;11.762;2023-05-10T10:03:41;1.90;;;1.38;;
12480;SDS011;6305;48.398;11.762;2023-05-10T10:06:09;1.75;;;1.65;;
12480;SDS011;6305;48.398;11.762;2023-05-10T10:08:36;1.58;;;1.10;;
12480;SDS011;6305;48.398;11.762;2023-05-10T10:11:03;1.33;;;1.23;;
12480;SDS011;6305;48.398;11.762;2023-05-10T10:13:30;4.82;;;1.08;;
12480;SDS011;6305;48.398;11.762;2023-05-10T10:15:58;1.10;;;1.00;;
12480;SDS011;6305;48.398;11.762;2023-05-10T10:18:26;3.03;;;1.00;;
12480;SDS011;6305;48.398;11.762;2023-05-10T10:20:54;1.25;;;1.15;;
12480;SDS011;6305;48.398;11.762;2023-05-10T10:23:22;1.23;;;1.05;;
12480;SDS011;6305;48.398;11.762;2023-05-10T10:25:48;1.35;;;1.10;;
12480;SDS011;6305;48.398;11.762;2023-05-10T10:28:21;2.03;;;1.20;;
12480;SDS011;6305;48.398;11.762;2023-05-10T10:30:52;3.05;;;1.30;;
12480;SDS011;6305;48.398;11.762;2023-05-10T10:33:33;1.23;;;1.10;;
12480;SDS011;6305;48.398;11.762;2023-05-10T10:36:06;2.75;;;1.25;;
12480;SDS011;6305;48.398;11.762;2023-05-10T10:38:37;1.83;;;1.48;;
12480;SDS011;6305;48.398;11.762;2023-05-10T10:41:27;1.40;;;1.30;;
12480;SDS011;6305;48.398;11.762;2023-05-10T10:47:08;1.23;;;1.13;;
12480;SDS011;6305;48.398;11.762;2023-05-10T10:50:06;2.35;;;1.30;;
12480;SDS011;6305;48.398;11.762;2023-05-10T10:52:34;1.50;;;1.27;;
12480;SDS011;6305;48.398;11.762;2023-05-10T10:55:03;1.50;;;1.40;;
12480;SDS011;6305;48.398;11.762;2023-05-10T10:57:32;4.47;;;1.20;;
12480;SDS011;6305;48.398;11.762;2023-05-10T11:00:19;1.70;;;1.20;;
12480;SDS011;6305;48.398;11.762;2023-05-10T11:02:55;1.45;;;1.20;;
12480;SDS011;6305;48.398;11.762;2023-05-10T11:08:09;1.50;;;1.30;;
12480;SDS011;6305;48.398;11.762;2023-05-10T11:10:48;1.98;;;1.13;;
12480;SDS011;6305;48.398;11.762;2023-05-10T11:13:37;1.15;;;1.05;;
12480;SDS011;6305;48.398;11.762;2023-05-10T11:16:12;2.30;;;1.08;;
12480;SDS011;6305;48.398;11.762;2023-05-10T11:18:51;1.15;;;1.05;;
12480;SDS011;6305;48.398;11.762;2023-05-10T11:21:28;1.52;;;1.20;;
12480;SDS011;6305;48.398;11.762;2023-05-10T11:23:55;1.98;;;1.30;;
12480;SDS011;6305;48.398;11.762;2023-05-10T11:26:24;3.55;;;1.23;;
12480;SDS011;6305;48.398;11.762;2023-05-10T11:28:51;1.10;;;1.00;;
12480;SDS011;6305;48.398;11.762;2023-05-10T11:31:21;3.50;;;1.30;;
12480;SDS011;6305;48.398;11.762;2023-05-10T11:33:52;1.15;;;0.88;;
12480;SDS011;6305;48.398;11.762;2023-05-10T11:36:21;1.10;;;0.70;;
12480;SDS011;6305;48.398;11.762;2023-05-10T11:38:51;0.60;;;0.60;;
12480;SDS011;6305;48.398;11.762;2023-05-10T11:41:19;0.55;;;0.50;;
12480;SDS011;6305;48.398;11.762;2023-05-10T11:43:49;1.85;;;0.63;;
12480;SDS011;6305;48.398;11.762;2023-05-10T11:46:18;0.95;;;0.70;;
12480;SDS011;6305;48.398;11.762;2023-05-10T11:48:47;0.98;;;0.80;;
12480;SDS011;6305;48.398;11.762;2023-05-10T11:51:19;1.10;;;0.90;;
12480;SDS011;6305;48.398;11.762;2023-05-10T11:53:47;1.08;;;0.93;;
12480;SDS011;6305;48.398;11.762;2023-05-10T11:56:17;1.00;;;0.90;;
12480;SDS011;6305;48.398;11.762;2023-05-10T11:58:51;1.65;;;0.90;;
12480;SDS011;6305;48.398;11.762;2023-05-10T12:01:19;2.22;;;1.00;;
12480;SDS011;6305;48.398;11.762;2023-05-10T12:03:47;1.23;;;1.13;;
12480;SDS011;6305;48.398;11.762;2023-05-10T12:06:15;1.52;;;1.20;;
12480;SDS011;6305;48.398;11.762;2023-05-10T12:08:44;2.60;;;1.33;;
12480;SDS011;6305;48.398;11.762;2023-05-10T12:11:11;1.40;;;1.20;;
12480;SDS011;6305;48.398;11.762;2023-05-10T12:13:42;2.20;;;1.20;;
12480;SDS011;6305;48.398;11.762;2023-05-10T12:16:15;2.20;;;1.50;;
12480;SDS011;6305;48.398;11.762;2023-05-10T12:18:43;1.83;;;1.30;;
12480;SDS011;6305;48.398;11.762;2023-05-10T12:21:10;2.55;;;1.33;;
12480;SDS011;6305;48.398;11.762;2023-05-10T12:23:38;1.40;;;1.30;;
12480;SDS011;6305;48.398;11.762;2023-05-10T12:26:06;2.28;;;1.50;;
12480;SDS011;6305;48.398;11.762;2023-05-10T12:28:34;3.35;;;1.50;;
12480;SDS011;6305;48.398;11.762;2023-05-10T12:31:03;2.20;;;1.40;;
12480;SDS011;6305;48.398;11.762;2023-05-10T12:33:38;2.50;;;1.58;;
12480;SDS011;6305;48.398;11.762;2023-05-10T12:36:08;1.67;;;1.40;;
12480;SDS011;6305;48.398;11.762;2023-05-10T12:38:36;1.60;;;1.50;;
12480;SDS011;6305;48.398;11.762;2023-05-10T12:41:04;3.05;;;1.50;;
12480;SDS011;6305;48.398;11.762;2023-05-10T12:43:32;2.00;;;1.30;;
12480;SDS011;6305;48.398;11.762;2023-05-10T12:46:05;1.95;;;1.30;;
12480;SDS011;6305;48.398;11.762;2023-05-10T12:48:33;1.65;;;1.15;;
12480;SDS011;6305;48.398;11.762;2023-05-10T12:51:00;1.50;;;1.30;;
12480;SDS011;6305;48.398;11.762;2023-05-10T12:53:27;2.15;;;1.30;;
12480;SDS011;6305;48.398;11.762;2023-05-10T12:55:54;1.30;;;1.20;;
12480;SDS011;6305;48.398;11.762;2023-05-10T12:58:21;1.65;;;1.30;;
12480;SDS011;6305;48.398;11.762;2023-05-10T13:00:48;1.75;;;1.65;;
12480;SDS011;6305;48.398;11.762;2023-05-10T13:03:18;1.80;;;1.38;;
12480;SDS011;6305;48.398;11.762;2023-05-10T13:05:45;2.90;;;1.73;;
12480;SDS011;6305;48.398;11.762;2023-05-10T13:08:12;2.63;;;1.60;;
12480;SDS011;6305;48.398;11.762;2023-05-10T13:10:39;2.47;;;1.63;;
12480;SDS011;6305;48.398;11.762;2023-05-10T13:13:06;2.55;;;1.58;;
12480;SDS011;6305;48.398;11.762;2023-05-10T13:15:34;1.83;;;1.67;;
12480;SDS011;6305;48.398;11.762;2023-05-10T13:18:01;6.10;;;1.80;;
12480;SDS011;6305;48.398;11.762;2023-05-10T13:20:29;2.55;;;1.75;;
12480;SDS011;6305;48.398;11.762;2023-05-10T13:22:56;2.40;;;1.98;;
12480;SDS011;6305;48.398;11.762;2023-05-10T13:25:23;5.10;;;2.03;;
12480;SDS011;6305;48.398;11.762;2023-05-10T13:27:50;1.60;;;1.50;;
12480;SDS011;6305;48.398;11.762;2023-05-10T13:30:16;3.22;;;2.10;;
12480;SDS011;6305;48.398;11.762;2023-05-10T13:32:43;2.35;;;1.83;;
12480;SDS011;6305;48.398;11.762;2023-05-10T13:35:10;2.78;;;1.65;;
12480;SDS011;6305;48.398;11.762;2023-05-10T13:37:39;1.85;;;1.60;;
12480;SDS011;6305;48.398;11.762;2023-05-10T13:40:06;1.88;;;1.40;;
12480;SDS011;6305;48.398;11.762;2023-05-10T13:42:33;1.90;;;1.60;;
12480;SDS011;6305;48.398;11.762;2023-05-10T13:45:00;2.00;;;1.30;;
12480;SDS011;6305;48.398;11.762;2023-05-10T13:47:30;2.55;;;1.23;;
12480;SDS011;6305;48.398;11.762;2023-05-10T13:49:57;2.13;;;1.27;;
12480;SDS011;6305;48.398;11.762;2023-05-10T13:52:24;1.48;;;1.27;;
12480;SDS011;6305;48.398;11.762;2023-05-10T13:54:52;2.15;;;1.30;;
12480;SDS011;6305;48.398;11.762;2023-05-10T13:57:20;1.98;;;1.58;;
12480;SDS011;6305;48.398;11.762;2023-05-10T13:59:47;3.80;;;1.40;;
12480;SDS011;6305;48.398;11.762;2023-05-10T14:02:14;2.22;;;1.50;;
12480;SDS011;6305;48.398;11.762;2023-05-10T14:04:41;4.07;;;1.60;;
12480;SDS011;6305;48.398;11.762;2023-05-10T14:07:08;1.50;;;1.23;;
12480;SDS011;6305;48.398;11.762;2023-05-10T14:09:35;2.55;;;1.30;;
12480;SDS011;6305;48.398;11.762;2023-05-10T14:12:03;1.20;;;1.10;;
12480;SDS011;6305;48.398;11.762;2023-05-10T14:14:30;1.33;;;1.17;;
12480;SDS011;6305;48.398;11.762;2023-05-10T14:16:57;2.05;;;1.10;;
12480;SDS011;6305;48.398;11.762;2023-05-10T14:19:25;1.60;;;1.20;;
12480;SDS011;6305;48.398;11.762;2023-05-10T14:21:53;1.88;;;1.33;;
12480;SDS011;6305;48.398;11.762;2023-05-10T14:24:20;1.75;;;1.33;;
12480;SDS011;6305;48.398;11.762;2023-05-10T14:26:46;1.90;;;1.42;;
12480;SDS011;6305;48.398;11.762;2023-05-10T14:29:15;3.63;;;1.48;;
12480;SDS011;6305;48.398;11.762;2023-05-10T14:31:42;1.50;;;1.30;;
12480;SDS011;6305;48.398;11.762;2023-05-10T14:34:09;3.10;;;1.80;;
12480;SDS011;6305;48.398;11.762;2023-05-10T14:36:36;1.65;;;1.55;;
12480;SDS011;6305;48.398;11.762;2023-05-10T14:39:03;1.63;;;1.52;;
12480;SDS011;6305;48.398;11.762;2023-05-10T14:41:30;2.10;;;1.90;;
12480;SDS011;6305;48.398;11.762;2023-05-10T14:43:57;2.50;;;2.30;;
12480;SDS011;6305;48.398;11.762;2023-05-10T14:46:25;2.70;;;2.08;;
12480;SDS011;6305;48.398;11.762;2023-05-10T14:48:53;2.15;;;1.95;;
12480;SDS011;6305;48.398;11.762;2023-05-10T14:51:19;2.50;;;2.28;;
12480;SDS011;6305;48.398;11.762;2023-05-10T14:53:47;2.10;;;1.90;;
12480;SDS011;6305;48.398;11.762;2023-05-10T14:56:14;2.25;;;2.05;;
12480;SDS011;6305;48.398;11.762;2023-05-10T14:58:41;3.15;;;2.10;;
12480;SDS011;6305;48.398;11.762;2023-05-10T15:01:08;2.10;;;1.90;;
12480;SDS011;6305;48.398;11.762;2023-05-10T15:03:36;2.67;;;2.47;;